sensor_id;sensor_type;location;lat;lon;timestamp;pressure;altitude;pressure_sealevel;temperature;humidity
47763;BME280;33526;42.690;23.322;2023-04-25T00:00:59;94314.13;;;11.43;93.60
47763;BME280;33526;42.690;23.322;2023-04-25T00:03:31;94302.19;;;11.42;93.01
47763;BME280;33526;42.690;23.322;2023-04-25T00:05:58;94316.00;;;11.52;92.42
47763;BME280;33526;42.690;23.322;2023-04-25T00:08:28;94273.28;;;11.31;92.57
47763;BME280;33526;42.690;23.322;2023-04-25T00:10:58;94276.31;;;11.27;92.27
47763;BME280;33526;42.690;23.322;2023-04-25T00:13:33;94280.28;;;11.41;93.42
47763;BME280;33526;42.690;23.322;2023-04-25T00:16:03;94284.94;;;11.50;93.11
47763;BME280;33526;42.690;23.322;2023-04-25T00:18:34;94278.91;;;11.57;93.32
47763;BME280;33526;42.690;23.322;2023-04-25T00:21:14;94229.06;;;11.08;94.99
47763;BME280;33526;42.690;23.322;2023-04-25T00:23:49;94275.50;;;11.21;96.29
47763;BME280;33526;42.690;23.322;2023-04-25T00:26:29;94282.41;;;11.25;97.22
47763;BME280;33526;42.690;23.322;2023-04-25T00:28:59;94277.81;;;11.22;96.62
47763;BME280;33526;42.690;23.322;2023-04-25T00:31:29;94257.31;;;11.10;96.88
47763;BME280;33526;42.690;23.322;2023-04-25T00:33:55;94235.53;;;10.94;98.17
47763;BME280;33526;42.690;23.322;2023-04-25T00:36:22;94285.81;;;11.35;97.38
47763;BME280;33526;42.690;23.322;2023-04-25T00:38:51;94278.56;;;11.23;98.86
47763;BME280;33526;42.690;23.322;2023-04-25T00:41:21;94269.91;;;11.21;99.41
47763;BME280;33526;42.690;23.322;2023-04-25T00:43:59;94280.53;;;11.17;98.43
47763;BME280;33526;42.690;23.322;2023-04-25T00:46:38;94264.47;;;10.91;98.64
47763;BME280;33526;42.690;23.322;2023-04-25T00:49:16;94282.66;;;11.01;100.00
47763;BME280;33526;42.690;23.322;2023-04-25T00:51:52;94269.50;;;10.87;99.55
47763;BME280;33526;42.690;23.322;2023-04-25T00:54:27;94277.75;;;10.96;98.54
47763;BME280;33526;42.690;23.322;2023-04-25T00:56:56;94284.34;;;10.93;99.15
47763;BME280;33526;42.690;23.322;2023-04-25T00:59:25;94280.41;;;10.85;99.81
47763;BME280;33526;42.690;23.322;2023-04-25T01:01:55;94300.13;;;10.96;99.96
47763;BME280;33526;42.690;23.322;2023-04-25T01:04:23;94288.78;;;11.05;100.00
47763;BME280;33526;42.690;23.322;2023-04-25T01:06:54;94269.22;;;11.05;99.67
47763;BME280;33526;42.690;23.322;2023-04-25T01:09:39;94274.38;;;11.13;99.45
47763;BME280;33526;42.690;23.322;2023-04-25T01:12:10;94256.50;;;11.04;98.07
47763;BME280;33526;42.690;23.322;2023-04-25T01:14:46;94253.28;;;11.12;97.12
47763;BME280;33526;42.690;23.322;2023-04-25T01:17:16;94247.34;;;10.83;97.74
47763;BME280;33526;42.690;23.322;2023-04-25T01:19:49;94245.81;;;10.82;98.92
47763;BME280;33526;42.690;23.322;2023-04-25T01:22:21;94252.72;;;10.87;98.92
47763;BME280;33526;42.690;23.322;2023-04-25T01:24:49;94250.00;;;10.93;98.65
47763;BME280;33526;42.690;23.322;2023-04-25T01:27:19;94230.88;;;10.65;98.30
47763;BME280;33526;42.690;23.322;2023-04-25T01:29:50;94235.81;;;10.55;98.95
47763;BME280;33526;42.690;23.322;2023-04-25T01:32:25;94170.81;;;9.99;100.00
47763;BME280;33526;42.690;23.322;2023-04-25T01:35:01;94228.28;;;10.41;100.00
47763;BME280;33526;42.690;23.322;2023-04-25T01:37:36;94243.25;;;10.23;100.00
47763;BME280;33526;42.690;23.322;2023-04-25T01:40:10;94244.34;;;10.10;100.00
47763;BME280;33526;42.690;23.322;2023-04-25T01:42:43;94244.16;;;10.14;100.00
47763;BME280;33526;42.690;23.322;2023-04-25T01:45:14;94219.94;;;9.90;100.00
47763;BME280;33526;42.690;23.322;2023-04-25T01:47:48;94207.44;;;9.86;100.00
47763;BME280;33526;42.690;23.322;2023-04-25T01:50:18;94224.72;;;10.05;100.00
47763;BME280;33526;42.690;23.322;2023-04-25T01:52:47;94247.50;;;10.18;100.00
47763;BME280;33526;42.690;23.322;2023-04-25T01:55:16;94255.88;;;10.18;100.00
47763;BME280;33526;42.690;23.322;2023-04-25T01:57:45;94272.78;;;10.29;100.00
47763;BME280;33526;42.690;23.322;2023-04-25T02:00:13;94236.06;;;10.16;100.00
47763;BME280;33526;42.690;23.322;2023-04-25T02:02:46;94242.00;;;10.24;100.00
47763;BME280;33526;42.690;23.322;2023-04-25T02:05:18;94242.94;;;10.21;100.00
47763;BME280;33526;42.690;23.322;2023-04-25T02:07:45;94265.88;;;10.40;100.00
47763;BME280;33526;42.690;23.322;2023-04-25T02:10:22;94259.31;;;10.43;100.00
47763;BME280;33526;42.690;23.322;2023-04-25T02:12:49;94215.03;;;10.21;100.00
47763;BME280;33526;42.690;23.322;2023-04-25T02:15:18;94208.19;;;10.22;100.00
47763;BME280;33526;42.690;23.322;2023-04-25T02:17:48;94213.50;;;10.20;100.00
47763;BME280;33526;42.690;23.322;2023-04-25T02:20:24;94214.25;;;10.20;100.00
47763;BME280;33526;42.690;23.322;2023-04-25T02:22:52;94233.88;;;10.41;100.00
47763;BME280;33526;42.690;23.322;2023-04-25T02:25:23;94222.97;;;10.43;100.00
47763;BME280;33526;42.690;23.322;2023-04-25T02:27:50;94196.25;;;10.21;100.00
47763;BME280;33526;42.690;23.322;2023-04-25T02:30:20;94209.22;;;10.24;100.00
47763;BME280;33526;42.690;23.322;2023-04-25T02:32:54;94193.47;;;10.21;100.00
47763;BME280;33526;42.690;23.322;2023-04-25T02:35:24;94216.13;;;10.44;100.00
47763;BME280;33526;42.690;23.322;2023-04-25T02:37:57;94188.97;;;10.29;100.00
47763;BME280;33526;42.690;23.322;2023-04-25T02:40:23;94204.06;;;10.32;100.00
47763;BME280;33526;42.690;23.322;2023-04-25T02:42:52;94208.25;;;10.27;100.00
47763;BME280;33526;42.690;23.322;2023-04-25T02:45:22;94207.28;;;10.30;100.00
47763;BME280;33526;42.690;23.322;2023-04-25T02:47:53;94204.44;;;10.25;100.00
47763;BME280;33526;42.690;23.322;2023-04-25T02:50:23;94176.59;;;9.95;100.00
47763;BME280;33526;42.690;23.322;2023-04-25T02:52:52;94167.72;;;9.97;100.00
47763;BME280;33526;42.690;23.322;2023-04-25T02:55:25;94190.03;;;10.11;100.00
47763;BME280;33526;42.690;23.322;2023-04-25T02:58:04;94196.19;;;10.16;100.00
47763;BME280;33526;42.690;23.322;2023-04-25T03:00:43;94176.38;;;9.99;100.00
47763;BME280;33526;42.690;23.322;2023-04-25T03:03:15;94181.22;;;9.98;100.00
47763;BME280;33526;42.690;23.322;2023-04-25T03:05:56;94138.53;;;9.77;100.00
47763;BME280;33526;42.690;23.322;2023-04-25T03:08:29;94199.75;;;10.16;100.00
47763;BME280;33526;42.690;23.322;2023-04-25T03:10:59;94154.81;;;9.99;100.00
47763;BME280;33526;42.690;23.322;2023-04-25T03:13:26;94143.22;;;9.86;100.00
47763;BME280;33526;42.690;23.322;2023-04-25T03:15:54;94166.19;;;9.95;100.00
47763;BME280;33526;42.690;23.322;2023-04-25T03:18:23;94170.19;;;9.89;100.00
47763;BME280;33526;42.690;23.322;2023-04-25T03:20:53;94185.31;;;9.82;100.00
47763;BME280;33526;42.690;23.322;2023-04-25T03:23:24;94138.09;;;9.64;100.00
47763;BME280;33526;42.690;23.322;2023-04-25T03:26:00;94186.03;;;9.98;100.00
47763;BME280;33526;42.690;23.322;2023-04-25T03:28:36;94191.50;;;10.07;100.00
47763;BME280;33526;42.690;23.322;2023-04-25T03:31:08;94186.03;;;9.98;100.00
47763;BME280;33526;42.690;23.322;2023-04-25T03:33:37;94162.00;;;9.85;100.00
47763;BME280;33526;42.690;23.322;2023-04-25T03:36:05;94177.72;;;10.03;100.00
47763;BME280;33526;42.690;23.322;2023-04-25T03:38:35;94190.44;;;10.04;100.00
47763;BME280;33526;42.690;23.322;2023-04-25T03:41:07;94198.69;;;10.13;100.00
47763;BME280;33526;42.690;23.322;2023-04-25T03:43:34;94151.53;;;9.80;100.00
47763;BME280;33526;42.690;23.322;2023-04-25T03:46:01;94189.66;;;10.04;100.00
47763;BME280;33526;42.690;23.322;2023-04-25T03:48:31;94132.94;;;9.77;100.00
47763;BME280;33526;42.690;23.322;2023-04-25T03:51:07;94169.78;;;9.96;100.00
47763;BME280;33526;42.690;23.322;2023-04-25T03:53:38;94178.63;;;10.15;100.00
47763;BME280;33526;42.690;23.322;2023-04-25T03:56:14;94140.63;;;9.82;100.00
47763;BME280;33526;42.690;23.322;2023-04-25T03:58:48;94185.91;;;10.27;100.00
47763;BME280;33526;42.690;23.322;2023-04-25T04:01:17;94121.50;;;9.95;100.00
47763;BME280;33526;42.690;23.322;2023-04-25T04:03:44;94182.09;;;10.45;100.00
47763;BME280;33526;42.690;23.322;2023-04-25T04:06:11;94201.59;;;10.60;100.00
47763;BME280;33526;42.690;23.322;2023-04-25T04:08:40;94202.81;;;10.80;99.06
47763;BME280;33526;42.690;23.322;2023-04-25T04:11:07;94202.59;;;10.57;98.02
47763;BME280;33526;42.690;23.322;2023-04-25T04:13:36;94158.88;;;10.19;98.59
47763;BME280;33526;42.690;23.322;2023-04-25T04:16:04;94188.75;;;10.48;98.60
47763;BME280;33526;42.690;23.322;2023-04-25T04:18:33;94124.13;;;10.20;97.92
47763;BME280;33526;42.690;23.322;2023-04-25T04:21:03;94194.66;;;10.76;97.41
47763;BME280;33526;42.690;23.322;2023-04-25T04:23:32;94175.97;;;10.88;97.65
47763;BME280;33526;42.690;23.322;2023-04-25T04:26:00;94194.34;;;11.21;96.90
47763;BME280;33526;42.690;23.322;2023-04-25T04:28:26;94201.72;;;11.50;95.27
47763;BME280;33526;42.690;23.322;2023-04-25T04:30:54;94156.44;;;11.20;92.59
47763;BME280;33526;42.690;23.322;2023-04-25T04:33:22;94199.44;;;11.48;93.13
47763;BME280;33526;42.690;23.322;2023-04-25T04:35:52;94177.63;;;11.26;93.90
47763;BME280;33526;42.690;23.322;2023-04-25T04:38:23;94183.97;;;11.27;93.70
47763;BME280;33526;42.690;23.322;2023-04-25T04:40:53;94171.69;;;11.19;93.78
47763;BME280;33526;42.690;23.322;2023-04-25T04:43:24;94181.56;;;11.14;94.93
47763;BME280;33526;42.690;23.322;2023-04-25T04:45:56;94188.09;;;11.05;95.43
47763;BME280;33526;42.690;23.322;2023-04-25T04:48:28;94187.81;;;11.03;96.00
47763;BME280;33526;42.690;23.322;2023-04-25T04:51:00;94176.75;;;11.15;95.90
47763;BME280;33526;42.690;23.322;2023-04-25T04:53:31;94185.78;;;11.30;94.45
47763;BME280;33526;42.690;23.322;2023-04-25T04:55:59;94183.88;;;11.16;93.50
47763;BME280;33526;42.690;23.322;2023-04-25T04:58:29;94190.78;;;10.94;94.31
47763;BME280;33526;42.690;23.322;2023-04-25T05:00:57;94215.34;;;11.10;94.44
47763;BME280;33526;42.690;23.322;2023-04-25T05:03:24;94219.16;;;11.07;95.77
47763;BME280;33526;42.690;23.322;2023-04-25T05:05:54;94200.22;;;10.97;95.85
47763;BME280;33526;42.690;23.322;2023-04-25T05:08:23;94217.84;;;11.29;95.06
47763;BME280;33526;42.690;23.322;2023-04-25T05:10:54;94131.00;;;10.65;94.83
47763;BME280;33526;42.690;23.322;2023-04-25T05:13:28;94217.88;;;11.08;94.94
47763;BME280;33526;42.690;23.322;2023-04-25T05:15:58;94208.72;;;11.08;94.07
47763;BME280;33526;42.690;23.322;2023-04-25T05:18:25;94176.06;;;10.73;95.63
47763;BME280;33526;42.690;23.322;2023-04-25T05:20:54;94208.09;;;10.98;97.10
47763;BME280;33526;42.690;23.322;2023-04-25T05:23:22;94169.09;;;10.42;97.77
47763;BME280;33526;42.690;23.322;2023-04-25T05:25:51;94176.69;;;10.62;98.40
47763;BME280;33526;42.690;23.322;2023-04-25T05:28:20;94190.75;;;10.68;97.83
47763;BME280;33526;42.690;23.322;2023-04-25T05:30:50;94212.06;;;10.65;97.66
47763;BME280;33526;42.690;23.322;2023-04-25T05:33:18;94224.44;;;10.79;98.85
47763;BME280;33526;42.690;23.322;2023-04-25T05:35:45;94226.59;;;10.69;99.59
47763;BME280;33526;42.690;23.322;2023-04-25T05:38:13;94176.00;;;10.26;98.69
47763;BME280;33526;42.690;23.322;2023-04-25T05:40:41;94223.88;;;10.75;97.59
47763;BME280;33526;42.690;23.322;2023-04-25T05:43:10;94139.63;;;10.41;97.81
47763;BME280;33526;42.690;23.322;2023-04-25T05:45:37;94219.53;;;11.21;96.76
47763;BME280;33526;42.690;23.322;2023-04-25T05:48:02;94221.50;;;11.41;95.73
47763;BME280;33526;42.690;23.322;2023-04-25T05:50:29;94215.31;;;11.63;95.54
47763;BME280;33526;42.690;23.322;2023-04-25T05:52:55;94227.81;;;11.94;94.20
47763;BME280;33526;42.690;23.322;2023-04-25T05:55:23;94228.69;;;12.11;91.40
47763;BME280;33526;42.690;23.322;2023-04-25T05:57:50;94201.63;;;12.02;89.96
47763;BME280;33526;42.690;23.322;2023-04-25T06:00:16;94168.94;;;11.88;89.03
47763;BME280;33526;42.690;23.322;2023-04-25T06:02:42;94212.75;;;12.29;88.95
47763;BME280;33526;42.690;23.322;2023-04-25T06:05:08;94191.06;;;12.18;88.91
47763;BME280;33526;42.690;23.322;2023-04-25T06:07:35;94222.03;;;12.46;88.24
47763;BME280;33526;42.690;23.322;2023-04-25T06:10:02;94173.75;;;12.19;87.86
47763;BME280;33526;42.690;23.322;2023-04-25T06:12:29;94203.16;;;12.41;86.69
47763;BME280;33526;42.690;23.322;2023-04-25T06:14:56;94229.75;;;12.62;86.23
47763;BME280;33526;42.690;23.322;2023-04-25T06:17:23;94224.19;;;12.74;84.11
47763;BME280;33526;42.690;23.322;2023-04-25T06:19:50;94226.75;;;12.72;83.01
47763;BME280;33526;42.690;23.322;2023-04-25T06:22:16;94235.19;;;12.77;84.75
47763;BME280;33526;42.690;23.322;2023-04-25T06:24:42;94202.72;;;12.59;83.25
47763;BME280;33526;42.690;23.322;2023-04-25T06:27:09;94215.38;;;12.43;82.61
47763;BME280;33526;42.690;23.322;2023-04-25T06:29:35;94224.91;;;12.57;84.82
47763;BME280;33526;42.690;23.322;2023-04-25T06:32:07;94214.66;;;12.54;83.16
47763;BME280;33526;42.690;23.322;2023-04-25T06:34:34;94234.41;;;12.77;83.12
47763;BME280;33526;42.690;23.322;2023-04-25T06:37:03;94236.03;;;13.00;82.75
47763;BME280;33526;42.690;23.322;2023-04-25T06:39:33;94230.94;;;13.05;82.03
47763;BME280;33526;42.690;23.322;2023-04-25T06:42:01;94231.31;;;13.41;80.33
47763;BME280;33526;42.690;23.322;2023-04-25T06:44:27;94201.97;;;13.47;78.12
47763;BME280;33526;42.690;23.322;2023-04-25T06:46:55;94234.41;;;13.93;77.27
47763;BME280;33526;42.690;23.322;2023-04-25T06:49:25;94204.03;;;13.92;76.28
47763;BME280;33526;42.690;23.322;2023-04-25T06:51:51;94193.81;;;13.77;74.95
47763;BME280;33526;42.690;23.322;2023-04-25T06:54:17;94217.28;;;13.97;76.43
47763;BME280;33526;42.690;23.322;2023-04-25T06:56:44;94206.28;;;14.16;77.44
47763;BME280;33526;42.690;23.322;2023-04-25T06:59:12;94209.38;;;14.07;76.29
47763;BME280;33526;42.690;23.322;2023-04-25T07:01:41;94234.59;;;14.46;75.26
47763;BME280;33526;42.690;23.322;2023-04-25T07:04:09;94236.13;;;14.64;75.37
47763;BME280;33526;42.690;23.322;2023-04-25T07:06:41;94219.25;;;14.59;74.37
47763;BME280;33526;42.690;23.322;2023-04-25T07:09:12;94217.72;;;14.58;72.59
47763;BME280;33526;42.690;23.322;2023-04-25T07:11:38;94229.97;;;14.54;73.37
47763;BME280;33526;42.690;23.322;2023-04-25T07:14:06;94219.81;;;14.29;75.24
47763;BME280;33526;42.690;23.322;2023-04-25T07:16:33;94241.28;;;14.32;74.07
47763;BME280;33526;42.690;23.322;2023-04-25T07:19:01;94196.59;;;13.61;74.56
47763;BME280;33526;42.690;23.322;2023-04-25T07:21:34;94216.78;;;13.53;76.48
47763;BME280;33526;42.690;23.322;2023-04-25T07:24:04;94234.91;;;13.75;77.20
47763;BME280;33526;42.690;23.322;2023-04-25T07:26:37;94189.97;;;13.69;77.49
47763;BME280;33526;42.690;23.322;2023-04-25T07:29:05;94211.69;;;13.74;76.08
47763;BME280;33526;42.690;23.322;2023-04-25T07:31:33;94219.84;;;14.06;77.22
47763;BME280;33526;42.690;23.322;2023-04-25T07:34:01;94231.53;;;14.33;75.48
47763;BME280;33526;42.690;23.322;2023-04-25T07:36:29;94213.94;;;14.21;73.56
47763;BME280;33526;42.690;23.322;2023-04-25T07:38:56;94227.94;;;14.66;73.61
47763;BME280;33526;42.690;23.322;2023-04-25T07:41:26;94227.84;;;14.83;72.26
47763;BME280;33526;42.690;23.322;2023-04-25T07:43:56;94214.50;;;15.01;71.02
47763;BME280;33526;42.690;23.322;2023-04-25T07:46:24;94216.09;;;15.32;72.06
47763;BME280;33526;42.690;23.322;2023-04-25T07:48:53;94210.34;;;15.55;69.30
47763;BME280;33526;42.690;23.322;2023-04-25T07:51:21;94189.69;;;15.41;68.41
47763;BME280;33526;42.690;23.322;2023-04-25T07:53:48;94197.34;;;15.46;67.76
47763;BME280;33526;42.690;23.322;2023-04-25T07:56:17;94220.84;;;15.54;68.47
47763;BME280;33526;42.690;23.322;2023-04-25T07:58:45;94196.22;;;15.60;68.30
47763;BME280;33526;42.690;23.322;2023-04-25T08:01:13;94208.19;;;15.72;68.94
47763;BME280;33526;42.690;23.322;2023-04-25T08:03:46;94199.78;;;15.66;67.47
47763;BME280;33526;42.690;23.322;2023-04-25T08:06:12;94179.69;;;15.45;66.65
47763;BME280;33526;42.690;23.322;2023-04-25T08:08:38;94210.31;;;15.96;66.01
47763;BME280;33526;42.690;23.322;2023-04-25T08:11:03;94209.84;;;15.92;64.86
47763;BME280;33526;42.690;23.322;2023-04-25T08:13:30;94145.97;;;15.34;65.06
47763;BME280;33526;42.690;23.322;2023-04-25T08:15:56;94206.22;;;16.22;64.48
47763;BME280;33526;42.690;23.322;2023-04-25T08:18:22;94196.56;;;16.17;62.96
47763;BME280;33526;42.690;23.322;2023-04-25T08:20:47;94193.97;;;16.44;61.81
47763;BME280;33526;42.690;23.322;2023-04-25T08:23:13;94158.72;;;16.32;61.46
47763;BME280;33526;42.690;23.322;2023-04-25T08:25:39;94140.69;;;16.40;61.47
47763;BME280;33526;42.690;23.322;2023-04-25T08:28:05;94193.66;;;16.72;60.00
47763;BME280;33526;42.690;23.322;2023-04-25T08:30:31;94133.25;;;16.62;59.09
47763;BME280;33526;42.690;23.322;2023-04-25T08:32:56;94132.69;;;16.20;58.88
47763;BME280;33526;42.690;23.322;2023-04-25T08:35:22;94174.84;;;16.56;58.21
47763;BME280;33526;42.690;23.322;2023-04-25T08:37:48;94133.00;;;15.86;62.62
47763;BME280;33526;42.690;23.322;2023-04-25T08:40:15;94207.72;;;15.98;63.80
47763;BME280;33526;42.690;23.322;2023-04-25T08:42:44;94173.09;;;15.67;65.97
47763;BME280;33526;42.690;23.322;2023-04-25T08:45:11;94208.47;;;15.68;68.72
47763;BME280;33526;42.690;23.322;2023-04-25T08:47:38;94213.78;;;14.83;70.71
47763;BME280;33526;42.690;23.322;2023-04-25T08:50:05;94207.28;;;14.36;69.77
47763;BME280;33526;42.690;23.322;2023-04-25T08:52:36;94206.25;;;14.44;70.33
47763;BME280;33526;42.690;23.322;2023-04-25T08:55:03;94158.97;;;14.26;70.30
47763;BME280;33526;42.690;23.322;2023-04-25T08:57:31;94193.13;;;14.64;71.52
47763;BME280;33526;42.690;23.322;2023-04-25T08:59:57;94193.78;;;14.98;70.29
47763;BME280;33526;42.690;23.322;2023-04-25T09:02:24;94142.41;;;14.86;68.05
47763;BME280;33526;42.690;23.322;2023-04-25T09:04:50;94160.34;;;15.25;65.13
47763;BME280;33526;42.690;23.322;2023-04-25T09:07:15;94183.94;;;15.22;64.73
47763;BME280;33526;42.690;23.322;2023-04-25T09:09:43;94109.81;;;14.61;65.17
47763;BME280;33526;42.690;23.322;2023-04-25T09:12:10;94137.06;;;15.24;64.56
47763;BME280;33526;42.690;23.322;2023-04-25T09:14:36;94157.44;;;15.78;65.38
47763;BME280;33526;42.690;23.322;2023-04-25T09:17:04;94135.19;;;15.99;65.17
47763;BME280;33526;42.690;23.322;2023-04-25T09:19:35;94163.47;;;16.18;66.08
47763;BME280;33526;42.690;23.322;2023-04-25T09:22:04;94164.59;;;16.58;66.19
47763;BME280;33526;42.690;23.322;2023-04-25T09:24:37;94168.03;;;16.70;64.39
47763;BME280;33526;42.690;23.322;2023-04-25T09:27:08;94171.00;;;16.84;62.92
47763;BME280;33526;42.690;23.322;2023-04-25T09:29:36;94121.94;;;15.63;63.80
47763;BME280;33526;42.690;23.322;2023-04-25T09:32:22;94160.47;;;16.35;63.86
47763;BME280;33526;42.690;23.322;2023-04-25T09:34:53;94122.34;;;16.28;62.51
47763;BME280;33526;42.690;23.322;2023-04-25T09:37:25;94146.22;;;16.71;60.69
47763;BME280;33526;42.690;23.322;2023-04-25T09:40:03;94126.41;;;16.76;60.65
47763;BME280;33526;42.690;23.322;2023-04-25T09:42:33;94149.91;;;17.23;59.80
47763;BME280;33526;42.690;23.322;2023-04-25T09:45:01;94165.94;;;17.52;58.67
47763;BME280;33526;42.690;23.322;2023-04-25T09:47:36;94111.13;;;16.66;59.25
47763;BME280;33526;42.690;23.322;2023-04-25T09:50:14;94151.31;;;16.97;59.29
47763;BME280;33526;42.690;23.322;2023-04-25T09:52:42;94144.22;;;17.61;55.92
47763;BME280;33526;42.690;23.322;2023-04-25T09:55:10;94116.63;;;17.99;52.73
47763;BME280;33526;42.690;23.322;2023-04-25T09:57:36;94075.13;;;17.75;57.12
47763;BME280;33526;42.690;23.322;2023-04-25T10:00:14;94090.78;;;16.73;62.24
47763;BME280;33526;42.690;23.322;2023-04-25T10:02:49;94134.44;;;16.48;63.76
47763;BME280;33526;42.690;23.322;2023-04-25T10:05:21;94150.81;;;16.49;64.27
47763;BME280;33526;42.690;23.322;2023-04-25T10:07:52;94136.91;;;16.57;64.57
47763;BME280;33526;42.690;23.322;2023-04-25T10:10:24;94151.09;;;16.70;61.13
47763;BME280;33526;42.690;23.322;2023-04-25T10:13:00;94079.34;;;16.22;63.26
47763;BME280;33526;42.690;23.322;2023-04-25T10:15:31;94155.34;;;16.58;62.56
47763;BME280;33526;42.690;23.322;2023-04-25T10:18:00;94159.09;;;16.66;62.16
47763;BME280;33526;42.690;23.322;2023-04-25T10:20:29;94150.03;;;16.73;59.87
47763;BME280;33526;42.690;23.322;2023-04-25T10:23:13;94153.25;;;16.15;57.12
47763;BME280;33526;42.690;23.322;2023-04-25T10:25:45;94151.59;;;16.25;59.25
47763;BME280;33526;42.690;23.322;2023-04-25T10:28:14;94155.97;;;16.70;55.97
47763;BME280;33526;42.690;23.322;2023-04-25T10:31:03;94147.09;;;17.23;53.19
47763;BME280;33526;42.690;23.322;2023-04-25T10:33:36;94137.09;;;18.05;51.21
47763;BME280;33526;42.690;23.322;2023-04-25T10:36:12;94140.41;;;18.49;50.35
47763;BME280;33526;42.690;23.322;2023-04-25T10:38:45;94091.69;;;17.52;50.45
47763;BME280;33526;42.690;23.322;2023-04-25T10:41:15;94152.19;;;16.18;54.70
47763;BME280;33526;42.690;23.322;2023-04-25T10:43:47;94105.47;;;15.37;58.02
47763;BME280;33526;42.690;23.322;2023-04-25T10:46:21;94142.13;;;15.32;58.98
47763;BME280;33526;42.690;23.322;2023-04-25T10:48:54;94150.38;;;15.60;58.93
47763;BME280;33526;42.690;23.322;2023-04-25T10:51:27;94145.72;;;15.98;59.38
47763;BME280;33526;42.690;23.322;2023-04-25T10:54:04;94125.16;;;16.03;57.54
47763;BME280;33526;42.690;23.322;2023-04-25T10:56:41;94117.38;;;15.55;60.00
47763;BME280;33526;42.690;23.322;2023-04-25T10:59:22;94141.53;;;15.80;58.88
47763;BME280;33526;42.690;23.322;2023-04-25T11:01:58;94134.44;;;15.98;58.30
47763;BME280;33526;42.690;23.322;2023-04-25T11:04:33;94127.03;;;16.20;58.19
47763;BME280;33526;42.690;23.322;2023-04-25T11:10:05;94125.47;;;16.24;54.93
47763;BME280;33526;42.690;23.322;2023-04-25T11:12:35;94120.56;;;16.50;54.35
47763;BME280;33526;42.690;23.322;2023-04-25T11:15:03;94126.66;;;16.54;51.56
47763;BME280;33526;42.690;23.322;2023-04-25T11:17:33;94109.91;;;16.61;48.31
47763;BME280;33526;42.690;23.322;2023-04-25T11:20:04;94061.97;;;15.93;47.83
47763;BME280;33526;42.690;23.322;2023-04-25T11:22:43;94050.69;;;15.93;48.20
47763;BME280;33526;42.690;23.322;2023-04-25T11:25:14;94122.00;;;16.13;52.65
47763;BME280;33526;42.690;23.322;2023-04-25T11:27:54;94130.44;;;16.13;55.87
47763;BME280;33526;42.690;23.322;2023-04-25T11:30:27;94127.16;;;16.09;56.82
47763;BME280;33526;42.690;23.322;2023-04-25T11:32:56;94125.94;;;15.74;57.38
47763;BME280;33526;42.690;23.322;2023-04-25T11:35:29;94047.38;;;15.40;57.13
47763;BME280;33526;42.690;23.322;2023-04-25T11:37:58;94098.16;;;15.89;56.22
47763;BME280;33526;42.690;23.322;2023-04-25T11:40:24;94098.16;;;15.89;55.42
47763;BME280;33526;42.690;23.322;2023-04-25T11:42:49;94158.19;;;16.33;55.54
47763;BME280;33526;42.690;23.322;2023-04-25T11:45:15;94141.13;;;15.65;58.20
47763;BME280;33526;42.690;23.322;2023-04-25T11:47:41;94135.03;;;15.55;59.25
47763;BME280;33526;42.690;23.322;2023-04-25T11:50:08;94141.91;;;15.29;60.18
47763;BME280;33526;42.690;23.322;2023-04-25T11:55:12;94104.28;;;14.85;62.12
47763;BME280;33526;42.690;23.322;2023-04-25T11:57:39;94127.41;;;15.14;60.72
47763;BME280;33526;42.690;23.322;2023-04-25T12:02:53;94125.09;;;15.84;61.13
47763;BME280;33526;42.690;23.322;2023-04-25T12:05:19;94101.91;;;16.22;61.08
47763;BME280;33526;42.690;23.322;2023-04-25T12:07:46;94123.59;;;16.76;61.76
47763;BME280;33526;42.690;23.322;2023-04-25T12:10:13;94063.81;;;16.34;55.87
47763;BME280;33526;42.690;23.322;2023-04-25T12:12:44;94118.06;;;16.46;55.73
47763;BME280;33526;42.690;23.322;2023-04-25T12:17:40;94070.31;;;16.04;55.26
47763;BME280;33526;42.690;23.322;2023-04-25T12:20:10;94091.84;;;16.27;54.35
47763;BME280;33526;42.690;23.322;2023-04-25T12:22:37;94108.19;;;16.53;53.49
47763;BME280;33526;42.690;23.322;2023-04-25T12:25:06;94065.13;;;16.52;55.32
47763;BME280;33526;42.690;23.322;2023-04-25T12:27:33;94108.28;;;16.91;53.84
47763;BME280;33526;42.690;23.322;2023-04-25T12:29:59;94123.81;;;16.78;53.86
47763;BME280;33526;42.690;23.322;2023-04-25T12:32:25;94157.41;;;16.33;55.69
47763;BME280;33526;42.690;23.322;2023-04-25T12:34:51;94176.94;;;14.00;69.85
47763;BME280;33526;42.690;23.322;2023-04-25T12:37:17;94138.47;;;12.50;85.16
47763;BME280;33526;42.690;23.322;2023-04-25T12:39:43;94156.63;;;11.74;91.72
47763;BME280;33526;42.690;23.322;2023-04-25T12:42:09;94143.81;;;11.30;98.19
47763;BME280;33526;42.690;23.322;2023-04-25T12:44:37;94136.84;;;11.20;100.00
47763;BME280;33526;42.690;23.322;2023-04-25T12:47:03;94164.47;;;11.06;99.30
47763;BME280;33526;42.690;23.322;2023-04-25T12:49:29;94175.13;;;11.02;100.00
47763;BME280;33526;42.690;23.322;2023-04-25T12:51:55;94168.41;;;10.94;98.52
47763;BME280;33526;42.690;23.322;2023-04-25T12:54:22;94187.59;;;11.33;100.00
47763;BME280;33526;42.690;23.322;2023-04-25T12:56:52;94173.38;;;11.37;96.61
47763;BME280;33526;42.690;23.322;2023-04-25T12:59:21;94164.13;;;11.25;92.33
47763;BME280;33526;42.690;23.322;2023-04-25T13:01:51;94163.34;;;11.51;94.03
47763;BME280;33526;42.690;23.322;2023-04-25T13:04:20;94144.53;;;11.57;96.82
47763;BME280;33526;42.690;23.322;2023-04-25T13:06:55;94151.56;;;11.78;95.62
47763;BME280;33526;42.690;23.322;2023-04-25T13:09:25;94150.41;;;11.91;96.18
47763;BME280;33526;42.690;23.322;2023-04-25T13:11:56;94152.25;;;11.99;94.09